createdAt,value
2022-08-30T00:02:39.018Z,5.85
2022-08-30T00:07:42.707Z,6.43
2022-08-30T00:12:47.967Z,5.55
2022-08-30T00:17:51.845Z,6.30
2022-08-30T00:22:55.770Z,6.17
2022-08-30T00:28:01.010Z,6.17
2022-08-30T00:33:04.949Z,5.65
2022-08-30T00:38:09.458Z,6.07
2022-08-30T00:43:19.343Z,6.95
2022-08-30T00:48:23.302Z,5.85
2022-08-30T00:53:29.997Z,6.30
2022-08-30T00:58:38.266Z,5.80
2022-08-30T01:03:44.118Z,6.43
2022-08-30T01:08:48.690Z,6.18
2022-08-30T01:13:56.481Z,6.40
2022-08-30T01:19:01.289Z,6.47
2022-08-30T01:29:18.506Z,6.93
2022-08-30T01:34:22.154Z,7.05
2022-08-30T01:39:29.180Z,6.90
2022-08-30T01:44:32.750Z,7.70
2022-08-30T01:49:36.373Z,7.28
2022-08-30T01:54:44.124Z,6.47
2022-08-30T01:59:47.806Z,7.50
2022-08-30T02:04:51.783Z,7.22
2022-08-30T02:09:57.037Z,7.45
2022-08-30T02:15:00.638Z,7.68
2022-08-30T02:20:05.714Z,7.60
2022-08-30T02:25:20.375Z,7.82
2022-08-30T02:30:24.720Z,8.05
2022-08-30T02:35:28.478Z,7.70
2022-08-30T02:40:34.851Z,7.78
2022-08-30T02:45:41.005Z,7.55
2022-08-30T02:50:45.813Z,7.82
2022-08-30T02:55:51.327Z,7.60
2022-08-30T03:00:54.994Z,7.75
2022-08-30T03:05:58.711Z,7.70
2022-08-30T03:11:04.334Z,7.90
2022-08-30T03:16:08.039Z,7.28
2022-08-30T03:21:12.778Z,7.30
2022-08-30T03:26:17.979Z,7.40
2022-08-30T03:36:24.531Z,7.43
2022-08-30T03:41:30.639Z,7.25
2022-08-30T03:46:37.466Z,7.40
2022-08-30T03:51:42.077Z,7.45
2022-08-30T03:56:47.735Z,7.53
2022-08-30T04:01:51.339Z,6.90
2022-08-30T04:06:54.963Z,7.57
2022-08-30T04:12:00.178Z,7.60
2022-08-30T04:17:03.996Z,7.95
2022-08-30T04:22:07.611Z,7.75
2022-08-30T04:27:12.848Z,8.07
2022-08-30T04:32:16.985Z,7.35
2022-08-30T04:37:20.556Z,7.63
2022-08-30T04:42:25.766Z,7.60
2022-08-30T04:47:29.353Z,7.65
2022-08-30T04:52:33.800Z,7.60
2022-08-30T04:57:40.166Z,7.72
2022-08-30T05:02:44.097Z,7.95
2022-08-30T05:07:47.848Z,8.15
2022-08-30T05:12:53.048Z,7.90
2022-08-30T05:17:56.684Z,7.32
2022-08-30T05:23:00.282Z,7.38
2022-08-30T05:28:05.787Z,8.25
2022-08-30T05:38:12.255Z,8.02
2022-08-30T05:43:17.721Z,7.72
2022-08-30T05:48:21.319Z,7.75
2022-08-30T05:53:24.905Z,7.85
2022-08-30T05:58:30.358Z,8.25
2022-08-30T06:03:34.349Z,7.80
2022-08-30T06:08:37.945Z,7.82
2022-08-30T06:13:43.802Z,7.90
2022-08-30T06:18:47.539Z,7.80
2022-08-30T06:23:51.553Z,7.95
2022-08-30T06:28:58.378Z,7.65
2022-08-30T06:34:02.674Z,8.13
2022-08-30T06:39:06.648Z,7.38
2022-08-30T06:44:12.003Z,7.63
2022-08-30T06:49:15.635Z,8.02
2022-08-30T06:54:19.236Z,7.68
2022-08-30T06:59:24.424Z,8.30
2022-08-30T07:04:28.017Z,8.35
2022-08-30T07:14:41.772Z,8.45
2022-08-30T07:19:45.373Z,8.73
2022-08-30T07:24:49.258Z,7.75
2022-08-30T07:29:54.478Z,8.75
2022-08-30T07:34:58.045Z,8.57
2022-08-30T07:40:01.660Z,8.35
2022-08-30T07:45:07.746Z,8.55
2022-08-30T07:50:12.105Z,8.80
2022-08-30T07:55:15.722Z,8.73
2022-08-30T08:00:21.630Z,8.55
2022-08-30T08:05:25.305Z,9.60
2022-08-30T08:10:28.881Z,9.35
2022-08-30T08:15:34.282Z,8.82
2022-08-30T08:20:38.253Z,8.60
2022-08-30T08:25:42.225Z,8.82
2022-08-30T08:30:48.377Z,8.77
2022-08-30T08:35:52.822Z,9.23
2022-08-30T08:41:04.589Z,9.02
2022-08-30T08:46:17.118Z,8.45
2022-08-30T08:51:23.496Z,8.52
2022-08-30T08:56:27.483Z,9.20
2022-08-30T09:01:33.711Z,8.55
2022-08-30T09:06:48.938Z,9.15
2022-08-30T09:11:52.518Z,8.77
2022-08-30T09:17:02.795Z,8.52
2022-08-30T09:22:16.370Z,9.88
2022-08-30T09:27:24.128Z,9.38
2022-08-30T09:32:32.563Z,8.90
2022-08-30T09:37:39.926Z,8.45
2022-08-30T09:42:58.858Z,8.65
2022-08-30T09:48:23.324Z,9.00
2022-08-30T09:53:33.900Z,9.00
2022-08-30T09:58:50.595Z,9.15
2022-08-30T10:04:02.078Z,9.35
2022-08-30T10:09:17.738Z,9.07
2022-08-30T10:14:42.122Z,9.40
2022-08-30T10:20:03.093Z,8.80
2022-08-30T10:25:12.278Z,9.35
2022-08-30T10:30:20.542Z,8.90
2022-08-30T10:35:31.864Z,9.43
2022-08-30T10:40:47.543Z,9.60
2022-08-30T10:45:54.029Z,10.05
2022-08-30T10:51:05.156Z,8.95
2022-08-30T10:56:13.161Z,9.63
2022-08-30T11:01:47.073Z,9.35
2022-08-30T11:07:04.974Z,9.73
2022-08-30T11:12:32.199Z,9.43
2022-08-30T11:17:44.647Z,9.23
2022-08-30T11:23:26.698Z,9.68
2022-08-30T11:29:17.602Z,10.07
2022-08-30T11:34:58.853Z,10.25
2022-08-30T11:40:19.939Z,10.70
2022-08-30T11:45:49.757Z,9.48
2022-08-30T11:50:59.348Z,10.02
2022-08-30T11:56:08.786Z,9.70
2022-08-30T12:01:49.896Z,9.98
2022-08-30T12:06:56.438Z,10.30
2022-08-30T12:12:04.046Z,9.73
2022-08-30T12:17:17.831Z,9.93
2022-08-30T12:22:22.975Z,10.07
2022-08-30T12:27:32.961Z,10.77
2022-08-30T12:32:45.234Z,10.65
2022-08-30T12:37:59.626Z,10.32
2022-08-30T12:43:08.144Z,10.30
2022-08-30T12:48:15.948Z,10.15
2022-08-30T12:53:26.482Z,10.73
2022-08-30T12:58:40.667Z,10.48
2022-08-30T13:03:44.571Z,10.18
2022-08-30T13:08:52.157Z,10.35
2022-08-30T13:14:19.374Z,10.57
2022-08-30T13:24:32.580Z,10.23
2022-08-30T13:29:37.776Z,10.57
2022-08-30T13:34:41.846Z,10.32
2022-08-30T13:39:47.247Z,10.73
2022-08-30T13:44:52.898Z,11.25
2022-08-30T13:49:56.776Z,10.70
2022-08-30T13:55:00.498Z,10.13
2022-08-30T14:00:08.216Z,11.15
2022-08-30T14:05:30.800Z,10.48
2022-08-30T14:10:46.518Z,10.70
2022-08-30T14:16:26.458Z,10.10
2022-08-30T14:21:17.082Z,10.85
2022-08-30T14:26:32.274Z,10.48
2022-08-30T14:31:39.189Z,10.18
2022-08-30T14:36:44.987Z,10.10
2022-08-30T14:41:50.240Z,9.60
2022-08-30T14:46:55.770Z,9.87
2022-08-30T14:51:59.354Z,9.85
2022-08-30T14:57:02.922Z,10.20
2022-08-30T15:02:09.050Z,11.02
2022-08-30T15:07:13.843Z,9.93
2022-08-30T15:12:17.557Z,10.30
2022-08-30T15:17:22.796Z,11.07
2022-08-30T15:22:26.375Z,10.53
2022-08-30T15:27:30.056Z,11.57
2022-08-30T15:32:35.820Z,10.85
2022-08-30T15:42:42.697Z,10.43
2022-08-30T15:47:47.912Z,10.75
2022-08-30T15:52:52.451Z,11.55
2022-08-30T15:57:56.025Z,10.13
2022-08-30T16:03:01.238Z,10.60
2022-08-30T16:08:05.089Z,10.93
2022-08-30T16:13:09.148Z,10.88
2022-08-30T16:18:15.318Z,10.55
2022-08-30T16:23:19.626Z,11.40
2022-08-30T16:28:23.728Z,11.27
2022-08-30T16:33:29.766Z,10.35
2022-08-30T16:38:34.293Z,10.75
2022-08-30T16:43:38.890Z,10.93
2022-08-30T16:48:46.788Z,11.05
2022-08-30T16:53:50.856Z,10.52
2022-08-30T16:59:00.832Z,10.38
2022-08-30T17:04:08.904Z,11.38
2022-08-30T17:09:12.693Z,10.90
2022-08-30T17:14:23.130Z,11.15
2022-08-30T17:19:37.941Z,10.73
2022-08-30T17:24:44.696Z,10.35
2022-08-30T17:29:48.314Z,10.70
2022-08-30T17:34:53.538Z,10.57
2022-08-30T17:39:57.147Z,10.93
2022-08-30T17:45:04.313Z,10.65
2022-08-30T17:50:13.350Z,11.00
2022-08-30T17:55:16.957Z,11.25
2022-08-30T18:00:21.955Z,11.07
2022-08-30T18:05:27.421Z,11.07
2022-08-30T18:10:34.490Z,12.07
2022-08-30T18:15:38.519Z,12.75
2022-08-30T18:20:49.515Z,11.32
2022-08-30T18:25:56.948Z,11.73
2022-08-30T18:31:00.649Z,10.90
2022-08-30T18:36:06.909Z,11.37
2022-08-30T18:41:12.537Z,10.90
2022-08-30T18:46:18.085Z,11.52
2022-08-30T18:51:24.776Z,11.50
2022-08-30T18:56:31.723Z,11.23
2022-08-30T19:01:37.141Z,12.30
2022-08-30T19:06:44.496Z,12.03
2022-08-30T19:11:48.323Z,11.20
2022-08-30T19:16:52.620Z,11.65
2022-08-30T19:21:57.830Z,11.38
2022-08-30T19:27:01.490Z,11.05
2022-08-30T19:32:05.325Z,11.47
2022-08-30T19:37:11.880Z,11.80
2022-08-30T19:42:18.389Z,11.63
2022-08-30T19:47:22.200Z,11.37
2022-08-30T19:52:29.009Z,10.23
2022-08-30T19:57:32.713Z,10.90
2022-08-30T20:02:36.276Z,10.83
2022-08-30T20:07:41.636Z,11.37
2022-08-30T20:12:48.339Z,10.73
2022-08-30T20:18:05.164Z,10.52
2022-08-30T20:23:11.777Z,10.40
2022-08-30T20:28:17.731Z,10.35
2022-08-30T20:33:22.274Z,10.40
2022-08-30T20:43:31.414Z,9.77
2022-08-30T20:53:42.064Z,9.77
2022-08-30T20:58:46.658Z,10.13
2022-08-30T21:03:50.295Z,9.40
2022-08-30T21:08:55.692Z,9.70
2022-08-30T21:13:59.281Z,9.60
2022-08-30T21:19:03.449Z,9.17
2022-08-30T21:24:08.891Z,8.88
2022-08-30T21:29:13.073Z,9.32
2022-08-30T21:34:17.655Z,9.30
2022-08-30T21:39:26.422Z,9.63
2022-08-30T21:44:29.989Z,9.63
2022-08-30T21:49:33.844Z,9.80
2022-08-30T21:54:39.068Z,9.45
2022-08-30T21:59:42.638Z,8.95
2022-08-30T22:04:46.574Z,9.30
2022-08-30T22:09:51.819Z,9.43
2022-08-30T22:14:55.369Z,9.48
2022-08-30T22:19:59.107Z,9.13
2022-08-30T22:25:04.856Z,9.30
2022-08-30T22:30:09.323Z,9.35
2022-08-30T22:35:13.173Z,10.25
2022-08-30T22:40:21.229Z,9.77
2022-08-30T22:45:25.164Z,10.13
2022-08-30T22:50:28.815Z,10.10
2022-08-30T22:55:34.371Z,9.90
2022-08-30T23:00:40.317Z,10.18
2022-08-30T23:05:51.691Z,10.03
2022-08-30T23:10:56.924Z,9.43
2022-08-30T23:16:01.802Z,10.27
2022-08-30T23:21:07.918Z,9.30
2022-08-30T23:26:16.146Z,8.85
2022-08-30T23:31:19.785Z,9.02
2022-08-30T23:36:23.375Z,8.93
2022-08-30T23:41:33.880Z,9.00
2022-08-30T23:46:37.992Z,9.23
2022-08-30T23:51:41.582Z,8.07
2022-08-30T23:56:46.808Z,9.13
